Tonopah, Nevada
Current Conditions -  °F | °C
As of 8:56 PM on Tuesday 25 Nov 2014 (Local Time) from KTPH Reporting Station
Clear Clear  
Wind Chill: 38°   Ceiling: Unl
Heat Index: 44°   Visibility: 10mi
Dew Point: 18°   Wind: 12mph
Humidity: 35%   Direction: 340°NNW
Pressure: 30.47"   Gusts: NA
Location:  38.07°N, 117.23°W
Report Text: KTPH 260456Z AUTO 34010KT 10SM CLR 07/M08 A3047 RMK AO2 SLP320 T00671078
Loading
Personal Weather Stations






























Interactive Weather Map New forecast layout! Learn more

10-Day Weather Forecast

Advertisements
Track Severe Weather on mobile